KHEZ/HEZ METAR and TAF weather

Enter ICAO airport designator
Station Type Date Time Source
KHEZ METAR 2021/09/28 16:34 UTC NOAA

KHEZ 281634Z AUTO 17006KT 7SM VCTS OVC006 24/23 A3002 RMK AO2 LTG DSNT SE AND S TSB28


Station Type Date Time Source
KHEZ Decoded METAR 2021/09/28 16:34 UTC NOAA

Natchez, Hardy-Anders Field Natchez-Adams County Airport, MS, United States (KHEZ) 31-37N 091-18W
Sep 28, 2021 - 12:34 PM EDT / 2021.09.28 1634 UTC
Wind: from the S (170 degrees) at 7 MPH (6 KT):0
Visibility: 7 mile(s):0
Sky conditions: overcast
Weather: thunder in the vicinity; Lightning observed
Temperature: 75 F (24 C)
Dew Point: 73 F (23 C)
Relative Humidity: 94%
Pressure (altimeter): 30.02 in. Hg (1016 hPa)
ob: KHEZ 281634Z AUTO 17006KT 7SM VCTS OVC006 24/23 A3002 RMK AO2 LTG DSNT SE AND S TSB28
cycle: 16

Station Type Date Time Source
KHEZ TAF UTC NOAA

Error!

Example: see airport list